.
WxDataArchive / Data Records for 2015-01-04
2015-01-03 January 2015 2015-01-05

Data Records for Sunday, 04 January 2015

Time	Temp	Chill	HIndex	Humid	Dewpt	 Wind 	HiWind	WindDir	Rain 	Barom
-----	----	-----	------	-----	-----	------	------	-------	-----	-----
00:00	36.3	36.3	36.3	96	35.3	0	0	---	0.00	29.732 
00:05	36.3	36.3	36.3	96	35.3	0	0	---	0.00	29.732 
00:10	36.3	36.3	36.3	96	35.3	0	0	---	0.00	29.732 
00:15	36.2	36.2	36.2	96	35.2	0	0	---	0.00	29.730 
00:20	36.3	36.3	36.3	96	35.3	0	0	---	0.00	29.730 
00:25	36.3	36.3	36.3	96	35.3	0	0	---	0.00	29.730 
00:30	36.2	36.2	36.2	96	35.2	0	0	---	0.00	29.736 
00:35	36.2	36.2	36.2	96	35.2	0	0	---	0.00	29.736 
00:40	36.2	36.2	36.2	96	35.2	0	0	---	0.00	29.736 
00:45	36.2	36.2	36.2	96	35.2	0	0	---	0.00	29.734 
00:50	36.0	36.0	36.0	96	35.0	0	0	---	0.00	29.734 
00:55	36.0	36.0	36.0	96	35.0	0	0	---	0.00	29.734 
01:00	36.0	36.0	36.0	96	35.0	0	0	---	0.00	29.731 
01:05	36.2	36.2	36.2	96	35.2	0	0	---	0.00	29.731 
01:10	36.2	36.2	36.2	96	35.2	0	0	---	0.00	29.731 
01:15	36.2	36.2	36.2	96	35.2	0	0	---	0.00	29.730 
01:20	36.2	36.2	36.2	96	35.2	0	0	---	0.00	29.730 
01:25	36.2	36.2	36.2	96	35.2	0	0	---	0.00	29.730 
01:30	36.2	36.2	36.2	96	35.2	0	0	---	0.00	29.723 
01:35	36.2	36.2	36.2	96	35.2	0	0	---	0.00	29.723 
01:40	36.2	36.2	36.2	96	35.2	0	0	---	0.00	29.723 
01:45	36.2	36.2	36.2	96	35.2	0	0	---	0.00	29.722 
01:50	36.3	36.3	36.3	96	35.3	0	0	---	0.00	29.722 
01:55	36.5	36.5	36.5	96	35.5	0	0	---	0.00	29.722 
02:00	36.6	36.6	36.6	96	35.6	0	0	---	0.00	29.729 
02:05	36.8	36.8	36.8	96	35.8	0	1	292	0.00	29.729 
02:10	36.9	36.9	36.9	96	35.9	0	1	292	0.00	29.729 
02:15	37.0	37.0	37.0	96	36.0	0	0	---	0.00	29.727 
02:20	37.3	37.3	37.3	97	36.5	0	0	---	0.00	29.727 
02:25	37.5	37.5	37.5	97	36.7	0	1	292	0.00	29.727 
02:30	37.6	37.6	37.6	97	36.8	0	1	292	0.00	29.719 
02:35	37.8	37.8	37.8	97	37.0	0	1	292	0.00	29.719 
02:40	37.8	37.8	37.8	97	37.0	0	0	---	0.00	29.719 
02:45	37.9	37.9	37.9	97	37.1	0	1	292	0.00	29.713 
02:50	37.9	37.9	37.9	97	37.1	0	1	292	0.00	29.713 
02:55	37.9	37.9	37.9	97	37.1	0	0	---	0.00	29.713 
03:00	37.8	37.8	37.8	97	37.0	0	0	---	0.00	29.712 
03:05	37.8	37.8	37.8	97	37.0	0	0	---	0.00	29.712 
03:10	37.6	37.6	37.6	97	36.8	0	1	292	0.00	29.712 
03:15	37.6	37.6	37.6	96	36.6	0	0	---	0.00	29.702 
03:20	37.6	37.6	37.6	96	36.6	0	0	---	0.00	29.702 
03:25	37.5	37.5	37.5	96	36.5	0	0	---	0.00	29.702 
03:30	37.5	37.5	37.5	96	36.5	0	0	---	0.00	29.684 
03:35	37.3	37.3	37.3	97	36.5	0	0	---	0.00	29.684 
03:40	37.3	37.3	37.3	96	36.3	0	0	---	0.00	29.684 
03:45	37.3	37.3	37.3	96	36.3	0	0	---	0.00	29.678 
03:50	37.3	37.3	37.3	96	36.3	0	0	---	0.01	29.678 
03:55	37.3	37.3	37.3	96	36.3	0	1	292	0.00	29.678 
04:00	37.3	37.3	37.3	96	36.3	0	0	---	0.00	29.671 
04:05	37.3	37.3	37.3	96	36.3	0	0	---	0.00	29.671 
04:10	37.3	37.3	37.3	96	36.3	0	0	---	0.00	29.671 
04:15	37.3	37.3	37.3	96	36.3	0	0	---	0.00	29.666 
04:20	37.2	37.2	37.2	96	36.2	0	0	---	0.01	29.666 
04:25	37.2	37.2	37.2	96	36.2	0	0	---	0.00	29.666 
04:30	37.2	37.2	37.2	96	36.2	0	0	---	0.00	29.666 
04:35	37.2	37.2	37.2	96	36.2	0	0	---	0.00	29.666 
04:40	37.0	37.0	37.0	96	36.0	0	0	---	0.00	29.666 
04:45	37.0	37.0	37.0	97	36.2	0	0	---	0.00	29.654 
04:50	37.0	37.0	37.0	96	36.0	0	0	---	0.00	29.654 
04:55	37.0	37.0	37.0	97	36.2	0	1	292	0.00	29.654 
05:00	37.2	37.2	37.2	97	36.4	0	1	292	0.00	29.655 
05:05	37.2	37.2	37.2	97	36.4	0	1	292	0.00	29.655 
05:10	37.2	37.2	37.2	97	36.4	0	1	292	0.00	29.655 
05:15	37.2	37.2	37.2	97	36.4	0	1	292	0.00	29.657 
05:20	37.3	37.3	37.3	97	36.5	1	3	292	0.00	29.657 
05:25	37.3	37.3	37.3	97	36.5	0	1	292	0.00	29.657 
05:30	37.3	37.3	37.3	97	36.5	0	2	292	0.00	29.666 
05:35	37.3	37.3	37.3	97	36.5	0	2	292	0.00	29.666 
05:40	37.5	37.5	37.5	97	36.7	1	3	292	0.00	29.666 
05:45	37.5	37.5	37.5	97	36.7	1	5	248	0.00	29.655 
05:50	37.5	37.5	37.5	97	36.7	0	2	248	0.01	29.655 
05:55	37.5	37.5	37.5	97	36.7	0	2	248	0.00	29.655 
06:00	37.6	37.6	37.6	97	36.8	1	4	248	0.00	29.669 
06:05	37.6	37.6	37.6	97	36.8	1	4	248	0.00	29.669 
06:10	37.8	37.8	37.8	97	37.0	1	3	270	0.00	29.669 
06:15	37.8	37.8	37.8	97	37.0	1	4	270	0.01	29.671 
06:20	37.8	37.8	37.8	97	37.0	1	3	248	0.00	29.671 
06:25	37.6	37.6	37.6	97	36.8	1	4	248	0.00	29.671 
06:30	37.6	37.6	37.6	97	36.8	1	4	248	0.00	29.667 
06:35	37.5	37.5	37.5	97	36.7	1	3	248	0.00	29.667 
06:40	37.3	37.3	37.3	97	36.5	0	3	248	0.00	29.667 
06:45	37.3	37.3	37.3	97	36.5	0	3	248	0.00	29.660 
06:50	37.2	37.2	37.2	97	36.4	1	4	248	0.00	29.660 
06:55	37.2	37.2	37.2	97	36.4	1	6	248	0.00	29.660 
07:00	37.0	37.0	37.0	97	36.2	1	4	270	0.00	29.658 
07:05	37.0	37.0	37.0	97	36.2	1	5	248	0.00	29.658 
07:10	37.0	37.0	37.0	96	36.0	1	6	248	0.00	29.658 
07:15	36.9	36.9	36.9	97	36.1	2	7	248	0.00	29.682 
07:20	36.9	36.9	36.9	97	36.1	2	6	248	0.00	29.682 
07:25	36.9	36.9	36.9	96	35.9	2	5	248	0.00	29.682 
07:30	36.8	36.8	36.8	96	35.8	2	7	248	0.00	29.684 
07:35	36.6	36.6	36.6	97	35.8	1	4	248	0.00	29.684 
07:40	36.5	36.5	36.5	96	35.5	2	5	270	0.00	29.684 
07:45	36.3	36.3	36.3	96	35.3	2	7	270	0.00	29.685 
07:50	36.2	36.2	36.2	96	35.2	2	6	270	0.00	29.685 
07:55	36.0	36.0	36.0	96	35.0	2	6	248	0.00	29.685 
08:00	35.9	35.9	35.9	96	34.9	3	10	248	0.00	29.692 
08:05	35.9	35.9	35.9	96	34.9	2	6	270	0.00	29.692 
08:10	35.8	35.8	35.8	96	34.8	3	6	248	0.00	29.692 
08:15	35.6	35.6	35.6	96	34.6	3	8	248	0.00	29.720 
08:20	35.6	35.6	35.6	96	34.6	3	6	248	0.00	29.720 
08:25	35.6	35.6	35.6	96	34.6	2	9	248	0.00	29.720 
08:30	35.5	35.5	35.5	96	34.5	2	8	248	0.00	29.735 
08:35	35.5	35.5	35.5	96	34.5	1	4	248	0.00	29.735 
08:40	35.5	35.5	35.5	96	34.5	3	7	270	0.00	29.735 
08:45	35.3	35.3	35.3	96	34.3	3	5	248	0.00	29.744 
08:50	35.3	35.3	35.3	96	34.3	1	4	248	0.00	29.744 
08:55	35.2	35.2	35.2	96	34.2	1	7	270	0.00	29.744 
09:00	35.2	35.2	35.2	96	34.2	3	7	270	0.00	29.759 
09:05	35.0	31.5	35.0	96	34.0	4	10	270	0.00	29.759 
09:10	34.9	34.9	34.9	96	33.9	2	9	270	0.00	29.759 
09:15	34.9	34.9	34.9	96	33.9	1	6	248	0.00	29.767 
09:20	34.7	34.7	34.7	96	33.7	3	6	248	0.00	29.767 
09:25	34.7	34.7	34.7	96	33.7	2	6	248	0.00	29.767 
09:30	34.6	34.6	34.6	96	33.6	2	6	270	0.00	29.780 
09:35	34.6	34.6	34.6	96	33.6	3	7	248	0.00	29.780 
09:40	34.6	34.6	34.6	96	33.6	2	5	248	0.00	29.780 
09:45	34.6	34.6	34.6	96	33.6	2	6	270	0.00	29.793 
09:50	34.4	34.4	34.4	96	33.4	2	5	248	0.00	29.793 
09:55	34.4	34.4	34.4	96	33.4	3	9	248	0.00	29.793 
10:00	34.4	34.4	34.4	96	33.4	2	4	270	0.00	29.796 
10:05	34.3	34.3	34.3	96	33.3	3	6	248	0.00	29.796 
10:10	34.3	34.3	34.3	96	33.3	2	5	248	0.00	29.796 
10:15	34.3	34.3	34.3	96	33.3	2	4	292	0.00	29.797 
10:20	34.3	34.3	34.3	96	33.3	3	10	248	0.00	29.797 
10:25	34.3	34.3	34.3	96	33.3	2	4	270	0.00	29.797 
10:30	34.3	34.3	34.3	96	33.3	1	4	248	0.00	29.810 
10:35	34.3	34.3	34.3	96	33.3	2	7	248	0.00	29.810 
10:40	34.1	34.1	34.1	96	33.1	2	6	248	0.00	29.810 
10:45	34.1	34.1	34.1	96	33.1	2	6	270	0.00	29.821 
10:50	34.1	34.1	34.1	96	33.1	2	7	248	0.00	29.821 
10:55	34.1	34.1	34.1	96	33.1	2	5	248	0.00	29.821 
11:00	34.1	34.1	34.1	96	33.1	2	6	248	0.00	29.828 
11:05	34.1	34.1	34.1	96	33.1	2	5	248	0.00	29.828 
11:10	34.3	34.3	34.3	96	33.3	1	6	270	0.00	29.828 
11:15	34.3	34.3	34.3	95	33.0	2	9	248	0.00	29.838 
11:20	34.3	34.3	34.3	95	33.0	2	9	248	0.00	29.838 
11:25	34.3	34.3	34.3	95	33.0	2	7	248	0.00	29.838 
11:30	34.3	34.3	34.3	95	33.0	2	8	270	0.00	29.840 
11:35	34.3	34.3	34.3	95	33.0	2	7	248	0.00	29.840 
11:40	34.3	34.3	34.3	95	33.0	1	4	270	0.00	29.840 
11:45	34.3	34.3	34.3	95	33.0	2	6	248	0.00	29.844 
11:50	34.3	34.3	34.3	95	33.0	1	4	270	0.00	29.844 
11:55	34.3	34.3	34.3	95	33.0	1	5	248	0.00	29.844 
12:00	34.3	34.3	34.3	94	32.8	1	6	270	0.00	29.830 
12:05	34.3	34.3	34.3	94	32.8	1	4	270	0.00	29.830 
12:10	34.3	34.3	34.3	94	32.8	1	3	248	0.00	29.830 
12:15	34.3	34.3	34.3	94	32.8	1	4	248	0.00	29.827 
12:20	34.4	34.4	34.4	94	32.9	1	4	248	0.00	29.827 
12:25	34.4	34.4	34.4	94	32.9	1	5	248	0.00	29.827 
12:30	34.4	34.4	34.4	94	32.9	1	4	248	0.00	29.830 
12:35	34.4	34.4	34.4	94	32.9	1	3	270	0.00	29.830 
12:40	34.4	34.4	34.4	94	32.9	1	6	248	0.00	29.830 
12:45	34.6	34.6	34.6	94	33.1	1	5	248	0.00	29.832 
12:50	34.4	34.4	34.4	93	32.6	1	4	248	0.00	29.832 
12:55	34.4	34.4	34.4	93	32.6	1	3	248	0.00	29.832 
13:00	34.4	34.4	34.4	93	32.6	1	3	248	0.00	29.831 
13:05	34.4	34.4	34.4	92	32.3	1	5	248	0.00	29.831 
13:10	34.3	34.3	34.3	92	32.2	1	5	248	0.00	29.831 
13:15	34.3	34.3	34.3	92	32.2	1	4	270	0.00	29.830 
13:20	34.3	34.3	34.3	92	32.2	2	4	270	0.00	29.830 
13:25	34.3	34.3	34.3	92	32.2	2	6	248	0.00	29.830 
13:30	34.3	34.3	34.3	91	32.0	1	4	248	0.00	29.836 
13:35	34.1	34.1	34.1	91	31.8	1	3	248	0.00	29.836 
13:40	34.1	34.1	34.1	91	31.8	1	5	248	0.00	29.836 
13:45	34.1	34.1	34.1	90	31.5	1	3	248	0.00	29.843 
13:50	34.0	34.0	34.0	90	31.4	1	6	248	0.00	29.843 
13:55	33.8	33.8	33.8	90	31.2	2	5	248	0.00	29.843 
14:00	33.8	33.8	33.8	90	31.2	2	6	248	0.00	29.845 
14:05	33.7	33.7	33.7	90	31.1	2	6	248	0.00	29.845 
14:10	33.5	33.5	33.5	90	30.9	2	5	248	0.00	29.845 
14:15	33.4	33.4	33.4	90	30.8	2	7	248	0.00	29.855 
14:20	33.4	33.4	33.4	90	30.8	2	4	248	0.00	29.855 
14:25	33.2	33.2	33.2	90	30.6	1	5	248	0.00	29.855 
14:30	32.9	32.9	32.9	90	30.3	2	4	248	0.00	29.867 
14:35	32.8	32.8	32.8	91	30.5	2	4	270	0.00	29.867 
14:40	32.8	32.8	32.8	91	30.5	1	3	270	0.00	29.867 
14:45	32.7	32.7	32.7	91	30.4	1	3	248	0.00	29.879 
14:50	32.7	32.7	32.7	91	30.4	1	3	248	0.00	29.879 
14:55	32.7	32.7	32.7	91	30.4	1	4	248	0.00	29.879 
15:00	32.7	32.7	32.7	92	30.6	1	4	292	0.00	29.891 
15:05	32.5	32.5	32.5	92	30.4	1	3	292	0.00	29.891 
15:10	32.5	32.5	32.5	92	30.4	2	4	292	0.00	29.891 
15:15	32.5	32.5	32.5	92	30.4	1	4	315	0.00	29.903 
15:20	32.4	32.4	32.4	92	30.3	2	4	270	0.00	29.903 
15:25	32.2	32.2	32.2	92	30.1	2	4	270	0.00	29.903 
15:30	31.9	31.9	31.9	91	29.6	3	7	292	0.00	29.924 
15:35	31.8	31.8	31.8	91	29.5	2	5	292	0.00	29.924 
15:40	31.8	31.8	31.8	91	29.5	3	5	292	0.00	29.924 
15:45	31.5	31.5	31.5	90	28.9	3	9	315	0.00	29.946 
15:50	31.5	31.5	31.5	90	28.9	2	5	270	0.00	29.946 
15:55	31.3	31.3	31.3	89	28.4	2	6	248	0.00	29.946 
16:00	31.2	31.2	31.2	89	28.3	2	4	292	0.00	29.970 
16:05	31.2	31.2	31.2	89	28.3	2	6	315	0.00	29.970 
16:10	31.2	31.2	31.2	89	28.3	3	6	315	0.00	29.970 
16:15	31.0	31.0	31.0	88	27.9	2	7	315	0.00	29.993 
16:20	31.0	31.0	31.0	88	27.9	2	5	270	0.00	29.993 
16:25	30.6	26.5	30.6	87	27.2	4	9	270	0.00	29.993 
16:30	30.3	26.1	30.3	85	26.3	4	10	270	0.00	30.018 
16:35	30.0	25.8	30.0	84	25.8	4	11	270	0.00	30.018 
16:40	30.0	25.8	30.0	85	26.0	4	6	270	0.00	30.018 
16:45	30.0	30.0	30.0	85	26.0	3	5	292	0.00	30.036 
16:50	30.0	30.0	30.0	85	26.0	3	6	270	0.00	30.036 
16:55	29.8	29.8	29.8	85	25.9	2	5	270	0.00	30.036 
17:00	29.8	29.8	29.8	84	25.6	3	5	270	0.00	30.046 
17:05	29.7	29.7	29.7	83	25.2	3	6	270	0.00	30.046 
17:10	29.5	29.5	29.5	82	24.7	3	6	270	0.00	30.046 
17:15	29.4	29.4	29.4	81	24.3	3	7	270	0.00	30.055 
17:20	29.3	29.3	29.3	81	24.2	2	6	270	0.00	30.055 
17:25	29.1	24.7	29.1	80	23.7	4	10	270	0.00	30.055 
17:30	28.7	23.2	28.7	79	23.0	5	16	270	0.00	30.075 
17:35	28.7	24.3	28.7	80	23.3	4	7	270	0.00	30.075 
17:40	28.5	28.5	28.5	81	23.4	2	4	292	0.00	30.075 
17:45	28.7	28.7	28.7	82	23.9	1	4	292	0.00	30.089 
17:50	28.5	28.5	28.5	81	23.4	3	5	292	0.00	30.089 
17:55	28.4	28.4	28.4	81	23.3	2	5	292	0.00	30.089 
18:00	28.2	23.7	28.2	78	22.2	4	6	270	0.00	30.105 
18:05	28.2	23.7	28.2	78	22.2	4	7	270	0.00	30.105 
18:10	28.2	28.2	28.2	78	22.2	3	5	270	0.00	30.105 
18:15	28.1	28.1	28.1	79	22.4	3	5	270	0.00	30.121 
18:20	28.1	28.1	28.1	79	22.4	2	5	270	0.00	30.121 
18:25	27.9	27.9	27.9	80	22.5	2	7	315	0.00	30.121 
18:30	27.8	27.8	27.8	79	22.2	2	6	270	0.00	30.130 
18:35	27.6	23.0	27.6	78	21.7	4	7	270	0.00	30.130 
18:40	27.5	27.5	27.5	78	21.6	2	7	292	0.00	30.130 
18:45	27.2	27.2	27.2	78	21.3	3	10	270	0.00	30.140 
18:50	27.0	27.0	27.0	78	21.1	2	5	292	0.00	30.140 
18:55	26.7	26.7	26.7	79	21.1	3	10	270	0.00	30.140 
19:00	26.6	26.6	26.6	78	20.7	3	7	270	0.00	30.147 
19:05	26.4	21.6	26.4	78	20.5	4	12	270	0.00	30.147 
19:10	26.3	26.3	26.3	78	20.4	3	10	270	0.00	30.147 
19:15	26.3	26.3	26.3	77	20.1	3	6	270	0.00	30.156 
19:20	26.1	21.3	26.1	75	19.3	4	7	248	0.00	30.156 
19:25	26.1	26.1	26.1	75	19.3	2	5	315	0.00	30.156 
19:30	26.1	26.1	26.1	75	19.3	2	4	270	0.00	30.166 
19:35	26.0	26.0	26.0	76	19.5	3	6	270	0.00	30.166 
19:40	25.8	20.9	25.8	76	19.3	4	7	270	0.00	30.166 
19:45	25.7	25.7	25.7	76	19.2	3	12	315	0.00	30.179 
19:50	25.7	25.7	25.7	77	19.5	3	7	270	0.00	30.179 
19:55	25.6	25.6	25.6	78	19.7	3	7	270	0.00	30.179 
20:00	25.4	25.4	25.4	79	19.8	3	7	270	0.00	30.193 
20:05	25.3	20.3	25.3	78	19.4	4	8	292	0.00	30.193 
20:10	25.1	20.1	25.1	77	18.9	4	11	270	0.00	30.193 
20:15	25.1	20.1	25.1	77	18.9	4	9	315	0.00	30.206 
20:20	25.1	25.1	25.1	77	18.9	3	7	270	0.00	30.206 
20:25	25.1	25.1	25.1	77	18.9	3	7	270	0.00	30.206 
20:30	25.0	20.0	25.0	77	18.8	4	6	270	0.00	30.217 
20:35	25.0	25.0	25.0	76	18.5	3	6	270	0.00	30.217 
20:40	24.8	24.8	24.8	77	18.6	2	6	292	0.00	30.217 
20:45	24.8	24.8	24.8	77	18.6	3	5	270	0.00	30.220 
20:50	24.5	19.4	24.5	77	18.3	4	9	270	0.00	30.220 
20:55	24.4	24.4	24.4	78	18.5	3	6	270	0.00	30.220 
21:00	24.2	24.2	24.2	78	18.3	3	7	270	0.00	30.229 
21:05	24.1	24.1	24.1	78	18.3	2	5	270	0.00	30.229 
21:10	23.6	17.2	23.6	76	17.2	5	11	270	0.00	30.229 
21:15	23.5	23.5	23.5	73	16.1	3	9	270	0.00	30.234 
21:20	23.5	23.5	23.5	74	16.5	3	6	292	0.00	30.234 
21:25	23.5	23.5	23.5	75	16.8	3	7	270	0.00	30.234 
21:30	23.3	23.3	23.3	76	16.9	3	5	270	0.00	30.244 
21:35	23.2	23.2	23.2	76	16.8	3	7	270	0.00	30.244 
21:40	23.2	23.2	23.2	76	16.8	3	6	292	0.00	30.244 
21:45	23.0	23.0	23.0	76	16.6	3	7	270	0.00	30.251 
21:50	23.0	17.7	23.0	76	16.6	4	7	270	0.00	30.251 
21:55	22.7	17.3	22.7	76	16.3	4	6	270	0.00	30.251 
22:00	22.4	17.0	22.4	75	15.7	4	10	270	0.00	30.256 
22:05	22.2	16.8	22.2	74	15.2	4	7	270	0.00	30.256 
22:10	22.1	16.6	22.1	75	15.4	4	6	270	0.00	30.256 
22:15	21.8	16.3	21.8	76	15.4	4	7	270	0.00	30.269 
22:20	21.6	21.6	21.6	77	15.5	3	6	270	0.00	30.269 
22:25	21.3	15.7	21.3	78	15.5	4	10	270	0.00	30.269 
22:30	21.0	15.4	21.0	77	14.9	4	10	270	0.00	30.287 
22:35	20.6	14.9	20.6	77	14.6	4	7	270	0.00	30.287 
22:40	20.5	14.8	20.5	78	14.8	4	9	270	0.00	30.287 
22:45	20.0	14.2	20.0	77	14.0	4	9	270	0.00	30.302 
22:50	19.7	12.6	19.7	75	13.1	5	10	292	0.00	30.302 
22:55	19.5	13.6	19.5	73	12.3	4	10	270	0.00	30.302 
23:00	19.4	13.5	19.4	71	11.6	4	7	270	0.00	30.317 
23:05	19.2	13.3	19.2	70	11.0	4	10	270	0.00	30.317 
23:10	19.1	13.2	19.1	69	10.6	4	10	270	0.00	30.317 
23:15	18.8	12.8	18.8	69	10.3	4	7	270	0.00	30.321 
23:20	18.6	18.6	18.6	69	10.2	3	7	292	0.00	30.321 
23:25	18.6	18.6	18.6	68	9.8	3	6	270	0.00	30.321 
23:30	18.6	18.6	18.6	69	10.2	3	6	270	0.00	30.327 
23:35	18.3	18.3	18.3	69	9.9	3	7	270	0.00	30.327 
23:40	18.1	18.1	18.1	69	9.7	3	7	248	0.00	30.327 
23:45	18.1	12.0	18.1	68	9.3	4	7	270	0.00	30.337 
23:50	18.1	18.1	18.1	68	9.3	3	6	270	0.00	30.337 
23:55	18.0	11.9	18.0	68	9.2	4	7	270	0.00	30.337 

CoCoRaHS
IN-AL-39
A2 Web Hosting
Creative Commons License
GoDaddy
search engine by freefind advanced

loaded 2018-11-12 15:50:24 • last modified 2010-11-18 10:43:29
Privacy PolicyDisclaimer
• wx.awcolley.com is powered by PmWiki v.2002016 •
• all content (unless otherwise noted) © 2018 A W Colley